createdAt,value
2018-06-17T00:00:01.826Z,56.69
2018-06-17T00:02:30.487Z,56.40
2018-06-17T00:04:59.100Z,56.73
2018-06-17T00:07:27.778Z,56.67
2018-06-17T00:09:56.373Z,57.46
2018-06-17T00:12:25.031Z,57.75
2018-06-17T00:14:53.653Z,57.26
2018-06-17T00:17:22.399Z,58.21
2018-06-17T00:19:51.127Z,58.63
2018-06-17T00:22:20.034Z,58.90
2018-06-17T00:24:48.675Z,58.83
2018-06-17T00:27:17.322Z,58.83
2018-06-17T00:29:46.218Z,58.94
2018-06-17T00:32:15.245Z,59.28
2018-06-17T00:34:43.818Z,59.21
2018-06-17T00:37:13.084Z,59.79
2018-06-17T00:39:41.720Z,59.64
2018-06-17T00:42:11.058Z,60.13
2018-06-17T00:44:39.794Z,59.79
2018-06-17T00:47:08.437Z,59.67
2018-06-17T00:49:37.033Z,59.76
2018-06-17T00:52:05.836Z,60.06
2018-06-17T00:54:34.434Z,60.33
2018-06-17T00:57:14.103Z,59.48
2018-06-17T00:59:42.722Z,59.11
2018-06-17T01:02:11.380Z,59.47
2018-06-17T01:04:40.106Z,59.07
2018-06-17T01:07:08.905Z,58.64
2018-06-17T01:09:37.615Z,58.66
2018-06-17T01:12:06.278Z,59.51
2018-06-17T01:14:34.890Z,59.63
2018-06-17T01:17:03.522Z,59.80
2018-06-17T01:19:32.283Z,59.67
2018-06-17T01:22:01.530Z,59.60
2018-06-17T01:24:30.141Z,59.55
2018-06-17T01:26:58.713Z,59.38
2018-06-17T01:29:27.349Z,60.07
2018-06-17T01:31:55.994Z,60.02
2018-06-17T01:34:24.634Z,59.20
2018-06-17T01:36:53.255Z,59.24
2018-06-17T01:39:21.826Z,59.04
2018-06-17T01:41:50.417Z,59.85
2018-06-17T01:44:19.108Z,59.34
2018-06-17T01:46:47.724Z,60.04
2018-06-17T01:49:16.377Z,59.43
2018-06-17T01:51:45.007Z,60.00
2018-06-17T01:54:13.653Z,59.61
2018-06-17T01:56:42.262Z,59.56
2018-06-17T01:59:10.893Z,59.29
2018-06-17T02:01:39.488Z,59.43
2018-06-17T02:04:13.268Z,59.18
2018-06-17T02:06:47.072Z,59.98
2018-06-17T02:09:20.954Z,60.38
2018-06-17T02:11:54.819Z,60.54
2018-06-17T02:14:28.685Z,60.76
2018-06-17T02:16:57.297Z,60.90
2018-06-17T02:19:26.572Z,61.18
2018-06-17T02:21:55.200Z,61.30
2018-06-17T02:24:24.250Z,60.84
2018-06-17T02:26:53.550Z,60.82
2018-06-17T02:29:22.216Z,61.12
2018-06-17T02:31:50.878Z,60.49
2018-06-17T02:34:19.602Z,60.38
2018-06-17T02:36:48.267Z,60.23
2018-06-17T02:39:16.839Z,60.56
2018-06-17T02:41:45.510Z,60.12
2018-06-17T02:44:14.108Z,60.15
2018-06-17T02:46:47.920Z,59.45
2018-06-17T02:49:21.607Z,59.15
2018-06-17T02:51:55.360Z,59.07
2018-06-17T02:54:29.109Z,58.90
2018-06-17T02:56:57.722Z,59.19
2018-06-17T02:59:26.299Z,59.17
2018-06-17T03:01:54.882Z,58.91
2018-06-17T03:04:23.525Z,58.86
2018-06-17T03:06:52.130Z,59.15
2018-06-17T03:09:20.724Z,59.07
2018-06-17T03:11:49.412Z,58.99
2018-06-17T03:14:18.756Z,59.21
2018-06-17T03:16:47.351Z,58.64
2018-06-17T03:19:16.995Z,59.27
2018-06-17T03:21:45.598Z,59.17
2018-06-17T03:24:14.234Z,59.51
2018-06-17T03:26:47.889Z,58.50
2018-06-17T03:29:21.542Z,58.46
2018-06-17T03:31:55.211Z,59.02
2018-06-17T03:34:23.845Z,59.30
2018-06-17T03:36:52.465Z,58.59
2018-06-17T03:39:21.092Z,58.59
2018-06-17T03:41:49.769Z,58.48
2018-06-17T03:44:18.346Z,58.59
2018-06-17T03:46:46.932Z,58.53
2018-06-17T03:49:15.501Z,58.49
2018-06-17T03:51:44.132Z,58.08
2018-06-17T03:54:12.747Z,57.58
2018-06-17T03:56:41.385Z,57.18
2018-06-17T03:59:10.075Z,57.36
2018-06-17T04:01:38.705Z,57.95
2018-06-17T04:04:07.370Z,57.92
2018-06-17T04:06:36.255Z,58.06
2018-06-17T04:09:06.374Z,57.22
2018-06-17T04:11:35.382Z,57.91
2018-06-17T04:14:03.970Z,57.34
2018-06-17T04:16:32.585Z,57.02
2018-06-17T04:19:01.187Z,57.47
2018-06-17T04:21:29.854Z,57.27
2018-06-17T04:23:58.428Z,56.34
2018-06-17T04:26:27.111Z,55.89
2018-06-17T04:28:55.689Z,55.93
2018-06-17T04:31:24.262Z,56.41
2018-06-17T04:33:53.685Z,56.39
2018-06-17T04:36:23.130Z,56.08
2018-06-17T04:38:51.709Z,55.54
2018-06-17T04:41:20.306Z,55.41
2018-06-17T04:43:48.987Z,55.31
2018-06-17T04:46:17.571Z,54.85
2018-06-17T04:48:46.145Z,54.88
2018-06-17T04:51:14.750Z,54.65
2018-06-17T04:53:43.313Z,54.17
2018-06-17T04:56:11.908Z,54.57
2018-06-17T04:58:40.519Z,54.36
2018-06-17T05:01:09.142Z,53.82
2018-06-17T05:03:37.715Z,53.60
2018-06-17T05:06:06.380Z,53.18
2018-06-17T05:08:34.957Z,53.02
2018-06-17T05:11:03.534Z,53.20
2018-06-17T05:13:32.129Z,52.72
2018-06-17T05:16:00.697Z,52.89
2018-06-17T05:18:29.263Z,52.40
2018-06-17T05:20:57.823Z,52.43
2018-06-17T05:23:26.420Z,52.05
2018-06-17T05:25:54.984Z,52.04
2018-06-17T05:28:23.539Z,51.36
2018-06-17T05:30:52.156Z,51.37
2018-06-17T05:33:20.793Z,51.68
2018-06-17T05:35:49.409Z,51.46
2018-06-17T05:38:18.005Z,50.58
2018-06-17T05:40:46.599Z,51.02
2018-06-17T05:43:15.238Z,50.58
2018-06-17T05:45:43.897Z,50.29
2018-06-17T05:48:12.496Z,50.19
2018-06-17T05:50:41.063Z,49.80
2018-06-17T05:53:09.641Z,50.61
2018-06-17T05:55:38.314Z,50.97
2018-06-17T05:58:06.913Z,51.04
2018-06-17T06:00:35.475Z,50.19
2018-06-17T06:03:04.103Z,50.09
2018-06-17T06:05:32.663Z,50.64
2018-06-17T06:08:01.254Z,50.18
2018-06-17T06:10:29.927Z,49.77
2018-06-17T06:12:58.514Z,50.23
2018-06-17T06:15:27.323Z,49.59
2018-06-17T06:17:55.909Z,49.58
2018-06-17T06:20:24.553Z,49.13
2018-06-17T06:22:53.140Z,48.90
2018-06-17T06:25:21.773Z,48.70
2018-06-17T06:27:50.344Z,48.49
2018-06-17T06:30:18.945Z,48.46
2018-06-17T06:32:47.561Z,48.33
2018-06-17T06:35:16.176Z,48.17
2018-06-17T06:37:44.761Z,48.57
2018-06-17T06:40:13.514Z,47.92
2018-06-17T06:42:42.147Z,47.88
2018-06-17T06:45:10.718Z,47.73
2018-06-17T06:47:39.292Z,47.61
2018-06-17T06:50:07.907Z,47.25
2018-06-17T06:52:36.489Z,46.70
2018-06-17T06:55:05.078Z,47.33
2018-06-17T06:57:33.727Z,47.28
2018-06-17T07:00:02.330Z,47.57
2018-06-17T07:02:41.837Z,47.53
2018-06-17T07:05:21.449Z,47.05
2018-06-17T07:08:00.913Z,46.99
2018-06-17T07:10:30.355Z,46.82
2018-06-17T07:12:58.957Z,46.33
2018-06-17T07:17:43.233Z,46.25
2018-06-17T07:20:11.810Z,46.37
2018-06-17T07:22:40.440Z,46.07
2018-06-17T07:25:11.319Z,46.17
2018-06-17T07:29:59.932Z,46.46
2018-06-17T07:32:28.610Z,45.47
2018-06-17T07:34:57.212Z,45.66
2018-06-17T07:37:25.802Z,45.75
2018-06-17T07:40:57.722Z,46.15
2018-06-17T07:43:26.335Z,45.27
2018-06-17T07:45:54.983Z,45.38
2018-06-17T07:49:44.026Z,46.49
2018-06-17T07:52:24.445Z,46.43
2018-06-17T07:54:53.073Z,45.55
2018-06-17T07:57:22.935Z,45.92
2018-06-17T07:59:51.514Z,45.86
2018-06-17T08:02:20.874Z,44.40
2018-06-17T08:04:49.578Z,43.95
2018-06-17T08:07:19.449Z,44.23
2018-06-17T08:09:48.848Z,43.30
2018-06-17T08:12:17.515Z,43.38
2018-06-17T08:14:46.252Z,42.89
2018-06-17T08:17:14.890Z,42.54
2018-06-17T08:19:43.941Z,43.25
2018-06-17T08:22:12.554Z,43.57
2018-06-17T08:24:41.204Z,43.19
2018-06-17T08:27:10.791Z,42.60
2018-06-17T08:29:40.191Z,43.10
2018-06-17T08:32:08.833Z,43.18
2018-06-17T08:34:37.518Z,43.13
2018-06-17T08:37:11.175Z,42.67
2018-06-17T08:39:40.324Z,43.67
2018-06-17T08:42:08.968Z,42.70
2018-06-17T08:44:37.684Z,41.58
2018-06-17T08:47:06.427Z,40.29
2018-06-17T08:49:41.408Z,40.88
2018-06-17T08:52:10.188Z,40.17
2018-06-17T08:54:38.793Z,39.85
2018-06-17T08:57:08.337Z,39.62
2018-06-17T08:59:37.112Z,40.29
2018-06-17T09:02:06.299Z,39.93
2018-06-17T09:04:35.007Z,40.21
2018-06-17T09:07:04.298Z,40.58
2018-06-17T09:09:32.961Z,39.92
2018-06-17T09:12:01.886Z,39.03
2018-06-17T09:14:30.490Z,39.85
2018-06-17T09:16:59.667Z,40.29
2018-06-17T09:19:28.313Z,40.07
2018-06-17T09:21:57.779Z,40.29
2018-06-17T09:24:26.430Z,40.20
2018-06-17T09:26:55.090Z,40.70
2018-06-17T09:29:23.722Z,40.43
2018-06-17T09:31:52.488Z,40.33
2018-06-17T09:34:21.155Z,40.12
2018-06-17T09:36:49.894Z,40.50
2018-06-17T09:39:18.557Z,39.59
2018-06-17T09:41:47.166Z,39.93
2018-06-17T09:44:15.800Z,40.32
2018-06-17T09:46:46.998Z,38.84
2018-06-17T09:49:15.761Z,38.93
2018-06-17T09:51:49.852Z,38.54
2018-06-17T09:54:18.733Z,37.51
2018-06-17T09:56:47.389Z,37.22
2018-06-17T09:59:16.009Z,37.64
2018-06-17T10:01:44.684Z,36.43
2018-06-17T10:04:13.354Z,35.89
2018-06-17T10:06:42.006Z,36.39
2018-06-17T10:09:11.361Z,35.29
2018-06-17T10:11:40.147Z,35.35
2018-06-17T10:14:08.930Z,34.58
2018-06-17T10:16:37.695Z,34.43
2018-06-17T10:19:06.574Z,35.08
2018-06-17T10:21:35.259Z,33.87
2018-06-17T10:24:03.991Z,33.77
2018-06-17T10:26:32.680Z,34.10
2018-06-17T10:29:04.292Z,34.62
2018-06-17T10:44:24.103Z,32.70
2018-06-17T10:46:54.078Z,32.86
2018-06-17T10:49:22.738Z,32.04
2018-06-17T10:51:52.554Z,31.14
2018-06-17T10:54:21.209Z,31.23
2018-06-17T10:56:49.838Z,31.81
2018-06-17T10:59:18.523Z,31.09
2018-06-17T11:01:47.196Z,31.53
2018-06-17T11:04:16.370Z,31.17
2018-06-17T11:06:44.994Z,31.28
2018-06-17T11:09:13.770Z,31.32
2018-06-17T11:11:42.579Z,31.60
2018-06-17T11:14:11.305Z,32.82
2018-06-17T11:16:39.954Z,32.48
2018-06-17T11:19:10.402Z,33.09
2018-06-17T11:21:39.049Z,32.88
2018-06-17T11:24:08.094Z,31.92
2018-06-17T11:26:36.823Z,31.91
2018-06-17T11:29:05.440Z,31.83
2018-06-17T11:31:34.110Z,31.19
2018-06-17T11:34:02.781Z,30.68
2018-06-17T11:36:31.468Z,30.86
2018-06-17T11:39:00.196Z,31.22
2018-06-17T11:41:28.995Z,32.18
2018-06-17T11:43:57.870Z,33.83
2018-06-17T11:46:26.595Z,33.74
2018-06-17T11:48:55.214Z,34.06
2018-06-17T11:51:23.901Z,32.89
2018-06-17T11:53:52.498Z,32.32
2018-06-17T11:56:21.185Z,31.98
2018-06-17T11:58:50.025Z,31.32
2018-06-17T12:01:18.666Z,30.81
2018-06-17T12:03:47.828Z,30.89
2018-06-17T12:06:18.175Z,30.16
2018-06-17T12:08:49.035Z,29.78
2018-06-17T12:11:17.690Z,29.91
2018-06-17T12:13:46.705Z,29.16
2018-06-17T12:16:15.341Z,29.24
2018-06-17T12:18:44.010Z,29.71
2018-06-17T12:21:12.637Z,30.50
2018-06-17T12:23:41.715Z,29.75
2018-06-17T12:26:11.389Z,28.92
2018-06-17T12:28:41.967Z,27.71
2018-06-17T12:31:10.873Z,26.74
2018-06-17T12:33:39.553Z,27.41
2018-06-17T12:36:09.801Z,27.43
2018-06-17T12:38:38.569Z,28.36
2018-06-17T12:41:07.794Z,28.82
2018-06-17T12:43:37.397Z,28.03
2018-06-17T12:46:06.482Z,28.64
2018-06-17T12:48:35.497Z,29.12
2018-06-17T12:51:04.375Z,28.91
2018-06-17T12:53:33.112Z,28.39
2018-06-17T12:56:01.734Z,27.56
2018-06-17T12:58:30.341Z,28.86
2018-06-17T13:00:58.965Z,30.21
2018-06-17T13:03:27.609Z,31.30
2018-06-17T13:05:56.282Z,32.63
2018-06-17T13:08:24.911Z,32.73
2018-06-17T13:10:53.773Z,33.29
2018-06-17T13:13:22.435Z,33.69
2018-06-17T13:15:51.085Z,33.77
2018-06-17T13:18:19.702Z,34.31
2018-06-17T13:20:48.357Z,34.48
2018-06-17T13:23:16.973Z,34.38
2018-06-17T13:25:45.742Z,35.13
2018-06-17T13:28:14.412Z,35.02
2018-06-17T13:30:43.159Z,34.93
2018-06-17T13:33:11.861Z,35.30
2018-06-17T13:35:40.828Z,35.20
2018-06-17T13:38:09.484Z,34.80
2018-06-17T13:40:38.113Z,35.06
2018-06-17T13:43:06.819Z,35.08
2018-06-17T13:45:35.471Z,35.26
2018-06-17T13:48:04.133Z,34.92
2018-06-17T13:50:32.770Z,35.34
2018-06-17T13:53:01.672Z,35.22
2018-06-17T13:55:30.294Z,35.69
2018-06-17T13:57:58.970Z,36.09
2018-06-17T14:00:27.587Z,35.68
2018-06-17T14:02:56.202Z,35.71
2018-06-17T14:05:24.832Z,36.10
2018-06-17T14:07:53.468Z,36.50
2018-06-17T14:10:22.150Z,36.88
2018-06-17T14:12:50.917Z,37.06
2018-06-17T14:15:20.940Z,36.44
2018-06-17T14:17:49.620Z,35.96
2018-06-17T14:20:21.823Z,36.49
2018-06-17T14:22:51.794Z,36.51
2018-06-17T14:25:20.409Z,36.49
2018-06-17T14:27:49.596Z,36.54
2018-06-17T14:30:18.232Z,37.12
2018-06-17T14:32:46.873Z,36.98
2018-06-17T14:35:15.566Z,36.72
2018-06-17T14:37:44.225Z,37.17
2018-06-17T14:40:13.548Z,38.38
2018-06-17T14:44:52.307Z,38.43
2018-06-17T14:47:25.921Z,37.89
2018-06-17T14:49:59.574Z,37.26
2018-06-17T14:53:34.535Z,37.59
2018-06-17T14:56:03.158Z,36.67
2018-06-17T14:58:31.779Z,36.58
2018-06-17T15:01:00.437Z,36.71
2018-06-17T15:03:29.157Z,36.61
2018-06-17T15:05:57.978Z,35.51
2018-06-17T15:08:26.658Z,34.72
2018-06-17T15:10:55.392Z,35.34
2018-06-17T15:13:24.000Z,34.52
2018-06-17T15:15:52.694Z,34.88
2018-06-17T15:18:21.473Z,35.14
2018-06-17T15:20:50.631Z,36.20
2018-06-17T15:23:19.277Z,35.99
2018-06-17T15:25:47.958Z,35.60
2018-06-17T15:28:16.599Z,35.40
2018-06-17T15:30:45.239Z,35.26
2018-06-17T15:33:19.074Z,35.94
2018-06-17T15:35:52.735Z,36.18
2018-06-17T15:38:26.375Z,35.31
2018-06-17T15:41:00.249Z,35.79
2018-06-17T15:43:28.963Z,37.79
2018-06-17T15:45:58.077Z,38.11
2018-06-17T15:48:26.725Z,38.48
2018-06-17T15:50:55.560Z,38.68
2018-06-17T15:53:24.142Z,38.35
2018-06-17T15:55:53.517Z,38.25
2018-06-17T15:58:22.880Z,38.24
2018-06-17T16:00:51.610Z,38.27
2018-06-17T16:03:20.254Z,38.58
2018-06-17T16:05:48.938Z,39.12
2018-06-17T16:08:17.564Z,38.99
2018-06-17T16:10:46.257Z,38.17
2018-06-17T16:13:20.384Z,38.68
2018-06-17T16:15:54.041Z,38.46
2018-06-17T16:18:27.778Z,38.54
2018-06-17T16:20:59.403Z,39.46
2018-06-17T16:23:29.858Z,39.11
2018-06-17T16:25:58.702Z,40.08
2018-06-17T16:28:27.341Z,40.33
2018-06-17T16:30:56.209Z,40.12
2018-06-17T16:33:24.995Z,40.81
2018-06-17T16:35:53.796Z,41.40
2018-06-17T16:38:22.670Z,41.44
2018-06-17T16:40:51.778Z,41.83
2018-06-17T16:43:20.413Z,41.34
2018-06-17T16:45:49.125Z,42.12
2018-06-17T16:48:17.756Z,42.29
2018-06-17T16:50:51.857Z,42.86
2018-06-17T16:53:25.493Z,42.34
2018-06-17T16:55:59.399Z,42.90
2018-06-17T16:58:33.026Z,42.54
2018-06-17T17:01:01.740Z,42.76
2018-06-17T17:03:30.382Z,43.39
2018-06-17T17:05:59.070Z,42.50
2018-06-17T17:08:27.723Z,43.19
2018-06-17T17:10:56.404Z,43.31
2018-06-17T17:13:25.025Z,42.66
2018-06-17T17:15:53.605Z,42.31
2018-06-17T17:18:22.226Z,42.31
2018-06-17T17:20:51.064Z,42.19
2018-06-17T17:23:19.767Z,42.22
2018-06-17T17:25:48.410Z,42.20
2018-06-17T17:28:17.140Z,41.98
2018-06-17T17:30:48.923Z,41.99
2018-06-17T17:33:22.789Z,42.41
2018-06-17T17:35:56.883Z,41.91
2018-06-17T17:38:34.165Z,41.84
2018-06-17T17:41:04.841Z,41.26
2018-06-17T17:43:33.458Z,41.29
2018-06-17T17:46:07.192Z,41.24
2018-06-17T17:48:35.868Z,41.05
2018-06-17T17:51:04.627Z,40.87
2018-06-17T17:53:33.293Z,41.32
2018-06-17T17:56:01.969Z,40.85
2018-06-17T17:58:30.590Z,40.75
2018-06-17T18:00:59.271Z,41.18
2018-06-17T18:03:27.914Z,40.53
2018-06-17T18:05:57.229Z,40.33
2018-06-17T18:08:25.942Z,40.17
2018-06-17T18:10:54.591Z,39.81
2018-06-17T18:13:24.175Z,39.48
2018-06-17T18:15:52.796Z,39.93
2018-06-17T18:18:21.433Z,39.83
2018-06-17T18:20:50.093Z,39.84
2018-06-17T18:23:18.757Z,40.03
2018-06-17T18:25:52.405Z,40.51
2018-06-17T18:28:26.298Z,39.90
2018-06-17T18:30:56.764Z,40.11
2018-06-17T18:33:30.523Z,40.47
2018-06-17T18:36:04.229Z,39.61
2018-06-17T18:38:32.911Z,40.42
2018-06-17T18:41:01.554Z,40.02
2018-06-17T18:43:30.247Z,40.73
2018-06-17T18:45:58.950Z,41.26
2018-06-17T18:48:27.583Z,41.55
2018-06-17T18:50:56.267Z,41.22
2018-06-17T18:53:25.822Z,41.58
2018-06-17T18:55:54.722Z,41.61
2018-06-17T18:58:23.531Z,41.29
2018-06-17T19:00:58.818Z,41.60
2018-06-17T19:03:27.483Z,41.94
2018-06-17T19:05:56.343Z,41.68
2018-06-17T19:08:30.221Z,40.90
2018-06-17T19:11:03.965Z,40.41
2018-06-17T19:13:37.696Z,40.93
2018-06-17T19:16:14.105Z,40.86
2018-06-17T19:18:42.809Z,41.58
2018-06-17T19:21:17.906Z,41.68
2018-06-17T19:23:46.594Z,41.32
2018-06-17T19:26:15.263Z,41.26
2018-06-17T19:28:43.934Z,41.50
2018-06-17T19:31:12.624Z,41.34
2018-06-17T19:33:41.303Z,41.60
2018-06-17T19:36:10.014Z,42.15
2018-06-17T19:38:39.314Z,42.62
2018-06-17T19:41:07.978Z,43.17
2018-06-17T19:43:36.687Z,43.91
2018-06-17T19:46:05.390Z,44.01
2018-06-17T19:48:34.799Z,44.19
2018-06-17T19:51:08.591Z,45.14
2018-06-17T19:55:46.323Z,45.15
2018-06-17T19:58:20.082Z,45.59
2018-06-17T20:00:51.302Z,45.87
2018-06-17T20:03:19.905Z,46.73
2018-06-17T20:05:48.618Z,47.04
2018-06-17T20:08:17.301Z,47.33
2018-06-17T20:10:46.263Z,47.68
2018-06-17T20:13:14.874Z,47.24
2018-06-17T20:15:43.554Z,47.82
2018-06-17T20:18:12.257Z,47.71
2018-06-17T20:20:41.172Z,47.99
2018-06-17T20:23:09.909Z,48.33
2018-06-17T20:25:38.663Z,47.96
2018-06-17T20:28:07.283Z,48.10
2018-06-17T20:30:35.892Z,47.81
2018-06-17T20:33:09.638Z,48.23
2018-06-17T20:35:43.471Z,48.16
2018-06-17T20:38:17.144Z,47.89
2018-06-17T20:40:51.002Z,47.88
2018-06-17T20:43:24.894Z,48.19
2018-06-17T20:45:53.714Z,47.99
2018-06-17T20:48:23.161Z,48.48
2018-06-17T20:50:51.869Z,48.65
2018-06-17T20:53:20.627Z,48.36
2018-06-17T20:55:49.325Z,49.02
2018-06-17T20:58:17.990Z,49.55
2018-06-17T21:00:46.637Z,50.07
2018-06-17T21:03:15.456Z,50.17
2018-06-17T21:05:44.198Z,50.02
2018-06-17T21:08:12.887Z,49.67
2018-06-17T21:10:41.502Z,49.31
2018-06-17T21:13:10.206Z,49.46
2018-06-17T21:15:38.843Z,49.88
2018-06-17T21:18:07.550Z,50.35
2018-06-17T21:20:41.439Z,50.98
2018-06-17T21:23:15.594Z,51.26
2018-06-17T21:25:49.400Z,51.21
2018-06-17T21:28:18.057Z,51.51
2018-06-17T21:30:46.805Z,51.83
2018-06-17T21:33:15.538Z,52.13
2018-06-17T21:35:44.576Z,52.22
2018-06-17T21:38:13.300Z,52.58
2018-06-17T21:40:41.948Z,52.55
2018-06-17T21:43:10.575Z,53.00
2018-06-17T21:45:39.274Z,53.38
2018-06-17T21:48:07.978Z,53.31
2018-06-17T21:50:36.908Z,53.39
2018-06-17T21:53:05.566Z,53.68
2018-06-17T21:55:34.206Z,53.90
2018-06-17T21:58:02.920Z,54.01
2018-06-17T22:00:31.749Z,53.98
2018-06-17T22:03:00.778Z,54.10
2018-06-17T22:05:30.147Z,53.89
2018-06-17T22:08:03.898Z,54.30
2018-06-17T22:10:38.369Z,54.53
2018-06-17T22:13:07.851Z,54.79
2018-06-17T22:15:41.827Z,54.60
2018-06-17T22:18:10.764Z,54.97
2018-06-17T22:20:39.952Z,54.52
2018-06-17T22:23:09.913Z,54.70
2018-06-17T22:25:38.756Z,54.83
2018-06-17T22:28:07.542Z,55.24
2018-06-17T22:30:36.193Z,55.69
2018-06-17T22:33:05.712Z,55.51
2018-06-17T22:35:34.370Z,55.37
2018-06-17T22:38:03.056Z,55.51
2018-06-17T22:40:31.736Z,55.70
2018-06-17T22:43:00.828Z,56.40
2018-06-17T22:45:29.447Z,56.01
2018-06-17T22:47:58.586Z,56.08
2018-06-17T22:50:27.303Z,55.85
2018-06-17T22:53:06.942Z,55.37
2018-06-17T22:55:35.643Z,55.74
2018-06-17T22:58:09.741Z,56.00
2018-06-17T23:00:43.651Z,55.86
2018-06-17T23:03:17.623Z,56.29
2018-06-17T23:05:51.728Z,56.82
2018-06-17T23:08:25.661Z,56.72
2018-06-17T23:10:54.242Z,56.55
2018-06-17T23:13:22.954Z,57.27
2018-06-17T23:15:51.599Z,57.28
2018-06-17T23:18:20.306Z,57.61
2018-06-17T23:20:49.014Z,57.50
2018-06-17T23:23:17.945Z,57.35
2018-06-17T23:25:46.617Z,58.31
2018-06-17T23:28:15.395Z,57.68
2018-06-17T23:30:44.745Z,57.16
2018-06-17T23:33:13.439Z,57.72
2018-06-17T23:35:43.428Z,57.68
2018-06-17T23:38:12.078Z,57.67
2018-06-17T23:40:40.731Z,57.62
2018-06-17T23:43:09.392Z,58.06
2018-06-17T23:45:42.194Z,58.31
2018-06-17T23:48:15.977Z,58.63
2018-06-17T23:50:49.842Z,58.24
2018-06-17T23:53:23.567Z,59.27
2018-06-17T23:55:57.410Z,58.90
2018-06-17T23:58:26.057Z,59.60
